Time;durP1;ratioP1;P1;durP2;ratioP2;P2;SDS_P1;SDS_P2;PMS_P1;PMS_P2;Temp;Humidity;BMP_temperature;BMP_pressure;BME280_temperature;BME280_humidity;BME280_pressure;Samples;Min_cycle;Max_cycle;Signal;HPM_P1;HPM_P2
2023/09/06 00:01:49;;;;;;;14.60;9.88;;;16.90;99.90;;;;;;5092514;28;20047;-78
2023/09/06 00:04:15;;;;;;;17.20;11.63;;;16.90;99.90;;;;;;5091942;28;20060;-78
2023/09/06 00:06:41;;;;;;;12.70;9.52;;;16.90;99.90;;;;;;5092104;28;20040;-78
2023/09/06 00:09:06;;;;;;;12.80;9.05;;;16.90;99.90;;;;;;5091824;28;20024;-79
2023/09/06 00:11:33;;;;;;;10.48;8.90;;;16.90;99.90;;;;;;5092193;28;20507;-79
2023/09/06 00:14:00;;;;;;;12.25;9.20;;;16.90;99.90;;;;;;5092140;28;20153;-78
2023/09/06 00:16:26;;;;;;;10.63;8.40;;;17.00;99.90;;;;;;5091922;28;20038;-78
2023/09/06 00:18:51;;;;;;;18.35;12.35;;;17.00;99.90;;;;;;5091584;28;20028;-78
2023/09/06 00:21:17;;;;;;;15.40;10.85;;;16.90;99.90;;;;;;5091518;28;20476;-78
2023/09/06 00:23:43;;;;;;;16.15;10.45;;;16.90;99.90;;;;;;5092167;28;20028;-78
2023/09/06 00:26:08;;;;;;;18.13;10.85;;;16.80;99.90;;;;;;5091434;28;20234;-78
2023/09/06 00:28:34;;;;;;;15.85;10.00;;;16.80;99.90;;;;;;5092010;28;20016;-78
2023/09/06 00:31:00;;;;;;;12.45;8.65;;;16.80;99.90;;;;;;5091475;28;20024;-78
2023/09/06 00:33:33;;;;;;;14.52;10.05;;;16.70;99.90;;;;;;5091035;28;20102;-78
2023/09/06 00:36:00;;;;;;;21.08;12.20;;;16.80;99.90;;;;;;5092364;28;20047;-78
2023/09/06 00:38:25;;;;;;;14.57;10.32;;;16.70;99.90;;;;;;5091433;28;20111;-78
2023/09/06 00:40:51;;;;;;;19.88;10.52;;;16.70;99.90;;;;;;5092094;28;20107;-78
2023/09/06 00:43:17;;;;;;;17.88;11.65;;;16.70;99.90;;;;;;5091158;28;20035;-78
2023/09/06 00:45:45;;;;;;;15.93;9.75;;;16.60;99.90;;;;;;5091811;28;20044;-78
2023/09/06 00:48:19;;;;;;;12.35;9.40;;;16.60;99.90;;;;;;5090499;28;20410;-78
2023/09/06 00:50:50;;;;;;;17.15;10.23;;;16.60;99.90;;;;;;5091465;28;20024;-78
2023/09/06 00:53:16;;;;;;;11.18;8.98;;;16.40;99.90;;;;;;5090789;28;20061;-78
2023/09/06 00:55:42;;;;;;;11.23;8.50;;;16.40;99.90;;;;;;5091809;28;20462;-78
2023/09/06 00:58:09;;;;;;;17.15;9.48;;;16.50;99.90;;;;;;5090353;28;20169;-78
2023/09/06 01:00:35;;;;;;;12.50;8.30;;;16.40;99.90;;;;;;5091076;28;20091;-78
2023/09/06 01:03:03;;;;;;;16.20;10.40;;;16.50;99.90;;;;;;5091288;28;20028;-78
2023/09/06 01:05:36;;;;;;;16.30;10.52;;;16.50;99.90;;;;;;5089746;28;20036;-78
2023/09/06 01:08:06;;;;;;;13.48;10.07;;;16.50;99.90;;;;;;5091339;28;20028;-78
2023/09/06 01:10:34;;;;;;;10.90;9.63;;;16.50;99.90;;;;;;5091795;28;20476;-78
2023/09/06 01:13:00;;;;;;;15.07;10.32;;;16.60;99.90;;;;;;5091264;28;20385;-79
2023/09/06 01:15:26;;;;;;;16.02;10.77;;;16.50;99.90;;;;;;5090823;28;20020;-79
2023/09/06 01:17:54;;;;;;;18.00;11.45;;;16.40;99.90;;;;;;5090536;28;20032;-78
2023/09/06 01:20:44;;;;;;;15.20;10.68;;;16.40;99.90;;;;;;5090248;28;20021;-77
2023/09/06 01:23:30;;;;;;;16.52;11.27;;;16.40;99.90;;;;;;5090777;28;20457;-78
2023/09/06 01:25:56;;;;;;;15.45;11.60;;;16.30;99.90;;;;;;5091122;28;20534;-78
2023/09/06 01:28:27;;;;;;;11.38;9.30;;;16.30;99.90;;;;;;5090164;28;20074;-78
2023/09/06 01:30:55;;;;;;;16.23;10.82;;;16.30;99.90;;;;;;5090750;28;20027;-79
2023/09/06 01:33:22;;;;;;;12.63;10.73;;;16.20;99.90;;;;;;5090221;28;20055;-78
2023/09/06 01:35:49;;;;;;;16.40;11.02;;;16.20;99.90;;;;;;5090490;28;20410;-78
2023/09/06 01:38:15;;;;;;;16.77;11.98;;;16.20;99.90;;;;;;5090037;28;20044;-78
2023/09/06 01:40:44;;;;;;;14.95;10.38;;;16.20;99.90;;;;;;5090524;28;20412;-78
2023/09/06 01:43:10;;;;;;;17.38;11.38;;;16.20;99.90;;;;;;5089986;28;20047;-78
2023/09/06 01:45:37;;;;;;;13.95;9.88;;;16.20;99.90;;;;;;5090439;28;20043;-78
2023/09/06 01:48:03;;;;;;;12.73;9.13;;;16.20;99.90;;;;;;5090503;28;20051;-78
2023/09/06 01:50:29;;;;;;;13.15;10.05;;;16.20;99.90;;;;;;5071083;28;20504;-79
2023/09/06 01:52:55;;;;;;;11.95;10.02;;;16.20;99.90;;;;;;5090332;28;20326;-78
2023/09/06 01:55:21;;;;;;;13.90;10.40;;;16.20;99.90;;;;;;5089937;28;20024;-78
2023/09/06 01:57:47;;;;;;;12.13;10.05;;;16.10;99.90;;;;;;5090229;28;20181;-79
2023/09/06 02:00:46;;;;;;;14.68;11.23;;;16.10;99.90;;;;;;5071761;28;20115;-78
2023/09/06 02:03:09;;;;;;;15.68;10.98;;;16.10;99.90;;;;;;5085863;28;20105;-78
2023/09/06 02:05:36;;;;;;;11.77;9.27;;;16.00;99.90;;;;;;5090262;28;20111;-78
2023/09/06 02:08:03;;;;;;;14.15;10.40;;;16.00;99.90;;;;;;5090351;28;20032;-78
2023/09/06 02:10:29;;;;;;;12.82;9.98;;;16.00;99.90;;;;;;5089175;28;20667;-79
2023/09/06 02:12:55;;;;;;;11.45;9.23;;;16.00;99.90;;;;;;5089925;28;20024;-78
2023/09/06 02:15:21;;;;;;;15.05;11.30;;;16.00;99.90;;;;;;5089551;28;20040;-77
2023/09/06 02:17:46;;;;;;;11.65;9.35;;;15.90;99.90;;;;;;5074977;28;20050;-78
2023/09/06 02:20:17;;;;;;;13.73;10.85;;;15.90;99.90;;;;;;5093693;28;20337;-78
2023/09/06 02:22:44;;;;;;;15.32;11.25;;;15.90;99.90;;;;;;5094177;28;20335;-77
2023/09/06 02:25:12;;;;;;;15.75;10.18;;;15.90;99.90;;;;;;5093912;28;20028;-77
2023/09/06 02:27:37;;;;;;;15.52;10.65;;;15.90;99.90;;;;;;5094418;28;20477;-77
2023/09/06 02:30:05;;;;;;;13.80;9.18;;;15.80;99.90;;;;;;5093801;28;20050;-77
2023/09/06 02:32:32;;;;;;;14.82;10.40;;;15.70;99.90;;;;;;5092093;28;20024;-78
2023/09/06 02:34:58;;;;;;;15.50;10.23;;;15.80;99.90;;;;;;5094374;28;20024;-78
2023/09/06 02:37:24;;;;;;;12.15;9.50;;;15.70;99.90;;;;;;5093308;28;20364;-78
2023/09/06 02:39:52;;;;;;;14.00;9.98;;;15.70;99.90;;;;;;5093933;28;20032;-77
2023/09/06 02:42:19;;;;;;;12.60;10.40;;;15.70;99.90;;;;;;5093487;28;20020;-77
2023/09/06 02:44:44;;;;;;;11.00;9.52;;;15.70;99.90;;;;;;5093508;28;20067;-78
2023/09/06 02:47:11;;;;;;;10.75;9.25;;;15.70;99.90;;;;;;5093892;28;20024;-78
2023/09/06 02:49:42;;;;;;;14.23;9.98;;;15.70;99.90;;;;;;5093332;28;20024;-78
2023/09/06 02:52:20;;;;;;;15.02;11.10;;;15.70;99.90;;;;;;5093813;28;20465;-77
2023/09/06 02:54:49;;;;;;;13.57;10.85;;;15.70;99.90;;;;;;5093637;28;20059;-77
2023/09/06 02:57:17;;;;;;;20.60;12.95;;;15.60;99.90;;;;;;5092969;28;20036;-77
2023/09/06 02:59:42;;;;;;;13.90;10.70;;;15.70;99.90;;;;;;5093305;28;20039;-77
2023/09/06 03:02:08;;;;;;;17.23;12.32;;;15.60;99.90;;;;;;5093746;28;20373;-77
2023/09/06 03:04:37;;;;;;;11.52;9.80;;;15.60;99.90;;;;;;5093027;28;20082;-77
2023/09/06 03:07:07;;;;;;;10.38;9.02;;;15.50;99.90;;;;;;5093604;28;20066;-78
2023/09/06 03:09:35;;;;;;;14.77;10.10;;;15.50;99.90;;;;;;5093084;28;20059;-78
2023/09/06 03:12:11;;;;;;;13.85;11.38;;;15.60;99.90;;;;;;5093225;28;20027;-77
2023/09/06 03:14:44;;;;;;;17.02;13.20;;;15.60;99.90;;;;;;5093151;28;20035;-78
2023/09/06 03:17:10;;;;;;;;;;;15.40;99.90;;;;;;5093582;28;20024;-78
2023/09/06 03:19:40;;;;;;;14.00;11.88;;;15.40;99.90;;;;;;5093075;28;19908;-78
2023/09/06 03:22:10;;;;;;;16.02;12.55;;;15.40;99.90;;;;;;5074803;28;20053;-78
2023/09/06 03:24:40;;;;;;;15.30;11.18;;;15.30;99.90;;;;;;5092768;28;20024;-78
2023/09/06 03:27:07;;;;;;;18.35;11.60;;;15.30;99.90;;;;;;5093605;28;20399;-78
2023/09/06 03:29:37;;;;;;;15.07;11.40;;;15.30;99.90;;;;;;5091515;28;20779;-78
2023/09/06 03:32:09;;;;;;;13.02;10.98;;;15.40;99.90;;;;;;5093218;28;20060;-78
2023/09/06 03:34:36;;;;;;;14.48;10.50;;;15.30;99.90;;;;;;5074631;28;20030;-78
2023/09/06 03:37:05;;;;;;;19.05;13.02;;;15.40;99.90;;;;;;5093061;28;20089;-78
2023/09/06 03:39:43;;;;;;;13.20;10.18;;;15.40;99.90;;;;;;5092375;28;20040;-78
2023/09/06 03:42:09;;;;;;;10.73;9.25;;;15.40;99.90;;;;;;5093033;28;20030;-78
2023/09/06 03:44:36;;;;;;;14.05;11.15;;;15.40;99.90;;;;;;5092302;28;20105;-78
2023/09/06 03:47:13;;;;;;;13.60;11.27;;;15.40;99.90;;;;;;5092951;28;20461;-78
2023/09/06 03:49:40;;;;;;;12.55;10.18;;;15.40;99.90;;;;;;5092493;28;20036;-79
2023/09/06 03:52:07;;;;;;;17.23;11.43;;;15.40;99.90;;;;;;5092294;28;20366;-77
2023/09/06 03:54:36;;;;;;;16.38;10.63;;;15.30;99.90;;;;;;5092231;28;20024;-77
2023/09/06 03:57:07;;;;;;;16.48;10.90;;;15.30;99.90;;;;;;5092628;28;20130;-77
2023/09/06 03:59:35;;;;;;;14.35;11.05;;;15.30;99.90;;;;;;5091942;28;20396;-78
2023/09/06 04:02:13;;;;;;;16.17;10.63;;;15.30;99.90;;;;;;5092554;28;20030;-78
2023/09/06 04:04:39;;;;;;;14.85;11.43;;;15.30;99.90;;;;;;5091783;28;20063;-78
2023/09/06 04:07:07;;;;;;;19.50;12.45;;;15.30;99.90;;;;;;5092434;28;20453;-78
2023/09/06 04:09:37;;;;;;;15.68;11.80;;;15.30;99.90;;;;;;5091895;28;20051;-78
2023/09/06 04:12:05;;;;;;;12.60;10.65;;;15.20;99.90;;;;;;5092437;28;20326;-78
2023/09/06 04:14:35;;;;;;;13.65;10.75;;;15.20;99.90;;;;;;5091805;28;20020;-78
2023/09/06 04:17:01;;;;;;;20.33;12.52;;;15.20;99.90;;;;;;5073726;28;20027;-78
2023/09/06 04:19:27;;;;;;;14.77;9.77;;;15.20;99.90;;;;;;5091409;28;20515;-78
2023/09/06 04:21:53;;;;;;;10.80;9.20;;;15.20;99.90;;;;;;5091940;28;20107;-78
2023/09/06 04:24:20;;;;;;;12.77;10.50;;;15.20;99.90;;;;;;5091714;28;20032;-79
2023/09/06 04:26:46;;;;;;;13.57;10.65;;;15.20;99.90;;;;;;5091866;28;20032;-77
2023/09/06 04:29:11;;;;;;;13.82;10.98;;;15.20;99.90;;;;;;5091710;28;20534;-78
2023/09/06 04:31:41;;;;;;;15.57;11.73;;;15.20;99.90;;;;;;5091729;28;20468;-77
2023/09/06 04:34:07;;;;;;;17.02;12.13;;;15.10;99.90;;;;;;5092030;28;20059;-78
2023/09/06 04:36:36;;;;;;;16.13;12.43;;;15.10;99.90;;;;;;5091525;28;20116;-78
2023/09/06 04:39:02;;;;;;;16.50;11.27;;;15.00;99.90;;;;;;5091485;28;20164;-78
2023/09/06 04:41:31;;;;;;;14.73;11.07;;;15.00;99.90;;;;;;5091209;28;20024;-78
2023/09/06 04:43:57;;;;;;;13.43;10.77;;;15.00;99.90;;;;;;5091978;28;20031;-78
2023/09/06 04:46:22;;;;;;;13.30;11.18;;;14.90;99.90;;;;;;5090800;28;20056;-78
2023/09/06 04:48:48;;;;;;;13.55;12.05;;;14.90;99.90;;;;;;5091400;28;20436;-78
2023/09/06 04:51:14;;;;;;;18.40;11.27;;;14.80;99.90;;;;;;5091496;28;20059;-77
2023/09/06 04:53:40;;;;;;;14.98;11.85;;;14.80;99.90;;;;;;5090606;28;20387;-77
2023/09/06 04:56:06;;;;;;;18.52;11.63;;;14.80;99.90;;;;;;5091616;28;20091;-78
2023/09/06 04:58:33;;;;;;;19.80;12.60;;;14.80;99.90;;;;;;5091676;28;20056;-77
2023/09/06 05:01:05;;;;;;;19.50;12.68;;;14.70;99.90;;;;;;5074365;28;20032;-77
2023/09/06 05:03:31;;;;;;;21.95;14.48;;;14.80;99.90;;;;;;5091688;28;20031;-77
2023/09/06 05:05:57;;;;;;;16.17;11.35;;;14.80;99.90;;;;;;5092153;28;20059;-77
2023/09/06 05:08:23;;;;;;;16.85;11.85;;;14.70;99.90;;;;;;5091460;28;20426;-78
2023/09/06 05:10:52;;;;;;;18.13;12.18;;;14.70;99.90;;;;;;5091555;28;20028;-77
2023/09/06 05:13:18;;;;;;;17.77;12.15;;;14.70;99.90;;;;;;5091041;28;20027;-77
2023/09/06 05:15:44;;;;;;;18.67;13.07;;;14.70;99.90;;;;;;5090735;28;20074;-77
2023/09/06 05:18:10;;;;;;;13.93;11.07;;;14.60;99.90;;;;;;5091221;28;20039;-78
2023/09/06 05:20:40;;;;;;;16.48;11.60;;;14.70;99.90;;;;;;5090606;28;20024;-78
2023/09/06 05:23:10;;;;;;;19.15;12.60;;;14.80;99.90;;;;;;5090981;28;20411;-78
2023/09/06 05:25:36;;;;;;;16.33;12.57;;;14.70;99.90;;;;;;5090407;28;20070;-78
2023/09/06 05:28:05;;;;;;;11.98;10.60;;;14.70;99.90;;;;;;5090670;28;20108;-78
2023/09/06 05:30:31;;;;;;;15.68;11.40;;;14.70;99.90;;;;;;5090255;28;20024;-78
2023/09/06 05:32:57;;;;;;;18.33;12.68;;;14.70;99.90;;;;;;5090818;28;20028;-78
2023/09/06 05:35:24;;;;;;;16.83;12.10;;;14.60;99.90;;;;;;5090935;28;20523;-78
2023/09/06 05:37:50;;;;;;;13.48;10.88;;;14.60;99.90;;;;;;5090794;28;20024;-78
2023/09/06 05:40:22;;;;;;;14.30;10.23;;;14.60;99.90;;;;;;5090686;28;20090;-78
2023/09/06 05:42:48;;;;;;;13.75;9.60;;;14.60;99.90;;;;;;5090403;28;20106;-78
2023/09/06 05:45:14;;;;;;;12.65;9.85;;;14.60;99.90;;;;;;5090185;28;20104;-79
2023/09/06 05:47:40;;;;;;;12.15;9.80;;;14.60;99.90;;;;;;5089996;28;20048;-79
2023/09/06 05:50:07;;;;;;;18.92;11.77;;;14.60;99.90;;;;;;5090491;28;20423;-79
2023/09/06 05:52:33;;;;;;;14.70;10.32;;;14.60;99.90;;;;;;5089191;28;20027;-79
2023/09/06 05:55:01;;;;;;;12.23;10.90;;;14.50;99.90;;;;;;5090339;28;20035;-79
2023/09/06 05:57:26;;;;;;;17.35;12.00;;;14.60;99.90;;;;;;5089782;28;20028;-79
2023/09/06 05:59:52;;;;;;;16.73;11.48;;;14.60;99.90;;;;;;5090129;28;20028;-79
2023/09/06 06:02:18;;;;;;;15.50;11.52;;;14.60;99.90;;;;;;5090368;28;20422;-78
2023/09/06 06:04:47;;;;;;;13.82;10.75;;;14.50;99.90;;;;;;5089799;28;20190;-79
2023/09/06 06:07:13;;;;;;;12.88;9.27;;;14.60;99.90;;;;;;5090508;28;20031;-79
2023/09/06 06:09:39;;;;;;;13.15;10.23;;;14.60;99.90;;;;;;5089894;28;20028;-79
2023/09/06 06:12:05;;;;;;;11.82;9.20;;;14.60;99.90;;;;;;5090377;28;20359;-78
2023/09/06 06:14:31;;;;;;;15.40;10.80;;;14.60;99.90;;;;;;5089608;28;20047;-78
2023/09/06 06:16:59;;;;;;;15.25;10.45;;;14.70;99.90;;;;;;5090228;28;20413;-78
2023/09/06 06:19:25;;;;;;;15.90;10.07;;;14.70;99.90;;;;;;5089811;28;20036;-79
2023/09/06 06:21:51;;;;;;;11.95;9.65;;;14.80;99.90;;;;;;5089912;28;20020;-78
2023/09/06 06:24:17;;;;;;;10.88;9.15;;;14.90;99.90;;;;;;5089664;28;20524;-79
2023/09/06 06:26:43;;;;;;;13.18;10.40;;;15.00;99.90;;;;;;5089452;28;20024;-79
2023/09/06 06:29:09;;;;;;;15.05;11.05;;;15.10;99.90;;;;;;5089756;28;20028;-79
2023/09/06 06:31:34;;;;;;;13.10;9.68;;;15.20;99.90;;;;;;5089536;28;20032;-79
2023/09/06 06:34:00;;;;;;;14.90;11.27;;;15.30;99.90;;;;;;5090097;28;20031;-79
2023/09/06 06:36:26;;;;;;;15.40;10.98;;;15.30;99.90;;;;;;5089860;28;20035;-79
2023/09/06 06:38:52;;;;;;;14.48;10.02;;;15.50;99.90;;;;;;5071412;28;20031;-79
2023/09/06 06:41:20;;;;;;;16.55;11.48;;;15.60;99.90;;;;;;5090724;28;20031;-78
2023/09/06 06:43:49;;;;;;;12.75;10.20;;;15.80;99.90;;;;;;5089434;28;20020;-79
2023/09/06 06:46:28;;;;;;;16.23;11.43;;;15.90;99.90;;;;;;5089870;28;20189;-79
2023/09/06 06:48:54;;;;;;;11.23;9.30;;;15.90;99.90;;;;;;5089915;28;20076;-78
2023/09/06 06:51:21;;;;;;;17.20;11.05;;;16.00;99.90;;;;;;5090101;28;20032;-79
2023/09/06 06:53:46;;;;;;;17.70;10.73;;;16.10;99.90;;;;;;5089271;28;20078;-79
2023/09/06 06:56:12;;;;;;;11.48;8.52;;;16.20;99.90;;;;;;5071377;28;20063;-78
2023/09/06 06:58:38;;;;;;;12.30;8.93;;;16.30;99.90;;;;;;5071026;28;20024;-78
2023/09/06 07:01:03;;;;;;;15.13;10.35;;;16.50;99.90;;;;;;5090017;28;20453;-78
2023/09/06 07:03:29;;;;;;;11.13;9.35;;;16.60;99.90;;;;;;5073453;28;20061;-79
2023/09/06 07:05:58;;;;;;;16.63;9.93;;;16.60;99.90;;;;;;5093533;28;20032;-79
2023/09/06 07:08:26;;;;;;;10.95;8.55;;;16.60;99.90;;;;;;5093456;28;20086;-79
2023/09/06 07:10:51;;;;;;;12.00;8.98;;;16.70;99.90;;;;;;5092809;28;20024;-79
2023/09/06 07:13:17;;;;;;;11.25;8.45;;;16.80;99.90;;;;;;5093213;28;20022;-78
2023/09/06 07:15:43;;;;;;;13.07;8.25;;;16.90;99.90;;;;;;5092332;28;20035;-79
2023/09/06 07:18:09;;;;;;;13.32;9.75;;;17.00;99.90;;;;;;5092880;28;20043;-79
2023/09/06 07:20:37;;;;;;;14.25;11.45;;;17.20;99.90;;;;;;5073967;28;20024;-79
2023/09/06 07:23:03;;;;;;;19.58;13.93;;;17.20;99.90;;;;;;5092929;28;20073;-79
2023/09/06 07:25:29;;;;;;;16.00;12.90;;;17.30;99.90;;;;;;5092867;28;20031;-79
2023/09/06 07:27:57;;;;;;;15.60;11.50;;;17.40;99.90;;;;;;5092977;28;20510;-79
2023/09/06 07:30:22;;;;;;;20.95;16.15;;;17.50;99.90;;;;;;5093156;28;20047;-79
2023/09/06 07:32:48;;;;;;;22.45;15.30;;;17.60;99.90;;;;;;5092208;28;20027;-80
2023/09/06 07:35:14;;;;;;;16.02;12.45;;;17.60;99.90;;;;;;5093221;28;20021;-78
2023/09/06 07:37:41;;;;;;;20.65;13.40;;;17.60;99.90;;;;;;5092399;28;20040;-78
2023/09/06 07:40:08;;;;;;;14.73;11.50;;;17.80;99.90;;;;;;5093054;28;20036;-78
2023/09/06 07:42:38;;;;;;;16.25;12.27;;;17.90;99.90;;;;;;5092379;28;20024;-79
2023/09/06 07:45:04;;;;;;;17.92;14.52;;;18.00;99.90;;;;;;5092527;28;20554;-79
2023/09/06 07:47:30;;;;;;;15.48;12.32;;;18.10;99.90;;;;;;5093453;28;20031;-79
2023/09/06 07:49:56;;;;;;;21.65;15.68;;;18.20;99.90;;;;;;5074588;28;20529;-78
2023/09/06 07:52:21;;;;;;;17.73;14.80;;;18.40;99.90;;;;;;5093196;28;20111;-79
2023/09/06 07:54:47;;;;;;;17.65;13.20;;;18.60;99.90;;;;;;5092307;28;20024;-79
2023/09/06 07:57:13;;;;;;;16.63;12.27;;;18.70;99.90;;;;;;5092724;28;20043;-78
2023/09/06 07:59:39;;;;;;;21.20;15.20;;;18.80;99.90;;;;;;5092179;28;20032;-77
2023/09/06 08:02:05;;;;;;;29.33;18.40;;;18.80;99.90;;;;;;5092705;28;20405;-78
2023/09/06 08:04:30;;;;;;;21.48;14.90;;;18.90;99.90;;;;;;5092543;28;20016;-79
2023/09/06 08:06:57;;;;;;;21.17;14.02;;;19.00;99.90;;;;;;5092602;28;20479;-78
2023/09/06 08:09:23;;;;;;;18.20;12.63;;;19.00;99.90;;;;;;5092644;28;20035;-78
2023/09/06 08:11:49;;;;;;;23.48;15.40;;;19.10;99.90;;;;;;5074010;28;20411;-78
2023/09/06 08:14:14;;;;;;;22.55;16.17;;;19.20;99.90;;;;;;5091869;28;20090;-78
2023/09/06 08:16:40;;;;;;;21.02;14.25;;;19.30;99.90;;;;;;5091729;28;20039;-78
2023/09/06 08:19:06;;;;;;;28.65;19.25;;;19.40;99.90;;;;;;5092390;28;20458;-79
2023/09/06 08:21:31;;;;;;;20.65;15.02;;;19.50;99.90;;;;;;5074154;28;20031;-79
2023/09/06 08:23:57;;;;;;;22.10;15.23;;;19.60;99.90;;;;;;5091845;28;20090;-79
2023/09/06 08:26:23;;;;;;;24.95;16.02;;;19.70;99.90;;;;;;5091811;28;20024;-79
2023/09/06 08:28:49;;;;;;;26.65;17.10;;;19.70;99.90;;;;;;5091831;28;20050;-78
2023/09/06 08:31:15;;;;;;;16.45;13.18;;;19.90;99.90;;;;;;5092089;28;20333;-79
2023/09/06 08:33:40;;;;;;;21.10;14.43;;;19.90;99.90;;;;;;5091907;28;20111;-79
2023/09/06 08:36:07;;;;;;;22.85;15.65;;;20.00;99.90;;;;;;5092295;28;20024;-78
2023/09/06 08:38:33;;;;;;;18.67;13.80;;;20.10;99.90;;;;;;5091731;28;20415;-79
2023/09/06 08:40:58;;;;;;;22.60;15.50;;;20.20;99.90;;;;;;5073019;28;20024;-78
2023/09/06 08:43:27;;;;;;;20.05;15.88;;;20.40;99.90;;;;;;5092377;28;20043;-78
2023/09/06 08:45:53;;;;;;;25.67;16.02;;;20.40;99.90;;;;;;5091698;28;20040;-78
2023/09/06 08:48:21;;;;;;;24.95;15.35;;;20.60;99.90;;;;;;5091543;28;20028;-78
2023/09/06 08:50:48;;;;;;;27.13;15.52;;;20.70;99.90;;;;;;5073326;28;20417;-78
2023/09/06 08:53:16;;;;;;;27.90;14.02;;;20.90;99.90;;;;;;5091749;28;20056;-79
2023/09/06 08:55:44;;;;;;;18.67;12.95;;;21.10;99.90;;;;;;5091097;28;20020;-79
2023/09/06 08:58:10;;;;;;;15.77;10.27;;;21.20;99.90;;;;;;5091674;28;20036;-79
2023/09/06 09:00:38;;;;;;;13.38;6.43;;;21.30;99.90;;;;;;5091350;28;20373;-79
2023/09/06 09:03:04;;;;;;;10.18;5.05;;;21.50;99.90;;;;;;5091533;28;20464;-79
2023/09/06 09:05:29;;;;;;;11.10;4.85;;;21.50;99.90;;;;;;5091460;28;20038;-78
2023/09/06 09:07:59;;;;;;;11.23;5.80;;;21.70;99.90;;;;;;5090917;28;20251;-78
2023/09/06 09:10:28;;;;;;;7.38;4.55;;;21.90;99.90;;;;;;5091486;28;20024;-78
2023/09/06 09:12:56;;;;;;;9.30;4.07;;;22.10;99.90;;;;;;5091124;28;20031;-78
2023/09/06 09:15:25;;;;;;;5.53;2.97;;;22.20;99.90;;;;;;5091368;28;20045;-78
2023/09/06 09:17:51;;;;;;;8.23;3.10;;;22.50;99.90;;;;;;5090672;28;20368;-78
2023/09/06 09:20:18;;;;;;;9.45;2.85;;;22.70;99.90;;;;;;5091311;28;20031;-78
2023/09/06 09:22:45;;;;;;;6.10;2.13;;;22.80;99.90;;;;;;5090641;28;20030;-78
2023/09/06 09:25:17;;;;;;;6.65;2.03;;;23.00;99.90;;;;;;5073256;28;20023;-79
2023/09/06 09:27:51;;;;;;;4.93;1.75;;;23.00;99.90;;;;;;5090190;28;20032;-79
2023/09/06 09:30:18;;;;;;;3.95;1.55;;;23.20;99.90;;;;;;5090874;28;20419;-79
2023/09/06 09:32:43;;;;;;;3.50;1.02;;;23.20;99.90;;;;;;5091008;28;20016;-79
2023/09/06 09:35:12;;;;;;;4.88;1.42;;;23.30;99.90;;;;;;5106775;28;20039;-79
2023/09/06 09:37:50;;;;;;;4.53;1.80;;;23.40;99.90;;;;;;5090589;28;20034;-80
2023/09/06 09:40:20;;;;;;;2.53;1.00;;;23.50;99.90;;;;;;5088944;28;20319;-79
2023/09/06 09:42:54;;;;;;;4.85;1.25;;;23.50;99.90;;;;;;5074288;28;20116;-79
2023/09/06 09:45:21;;;;;;;7.38;1.30;;;23.40;99.90;;;;;;5089255;28;20090;-79
2023/09/06 09:47:47;;;;;;;8.18;1.50;;;23.30;99.90;;;;;;5089746;28;20039;-79
2023/09/06 09:50:13;;;;;;;4.13;1.40;;;23.30;99.90;;;;;;5072052;28;20028;-79
2023/09/06 09:52:42;;;;;;;4.03;1.63;;;23.20;99.90;;;;;;5089874;28;20107;-79
2023/09/06 09:55:12;;;;;;;1.98;1.13;;;23.20;99.90;;;;;;5089892;28;20418;-80
2023/09/06 09:57:40;;;;;;;4.07;1.15;;;23.20;99.90;;;;;;5071680;28;20376;-80
2023/09/06 10:00:08;;;;;;;4.30;1.35;;;23.20;99.90;;;;;;5090039;28;20024;-80
2023/09/06 10:02:35;;;;;;;11.88;1.55;;;23.20;99.90;;;;;;5089909;28;20028;-80
2023/09/06 10:05:02;;;;;;;3.08;1.42;;;23.20;99.90;;;;;;5089755;28;20028;-80
2023/09/06 10:07:32;;;;;;;5.72;1.23;;;23.40;99.90;;;;;;5090204;28;20035;-79
2023/09/06 10:09:59;;;;;;;3.17;1.30;;;23.60;99.90;;;;;;5071380;28;20024;-79
2023/09/06 10:12:27;;;;;;;5.18;1.30;;;23.80;99.90;;;;;;5089141;28;20070;-78
2023/09/06 10:14:53;;;;;;;1.98;1.20;;;23.90;99.90;;;;;;5089461;28;20020;-79
2023/09/06 10:17:19;;;;;;;15.10;1.88;;;24.10;99.90;;;;;;5089849;28;20106;-78
2023/09/06 10:19:45;;;;;;;3.25;1.55;;;24.10;99.90;;;;;;5087997;28;20518;-79
2023/09/06 10:22:14;;;;;;;2.83;1.25;;;24.10;99.90;;;;;;5090144;28;20059;-79
2023/09/06 10:24:43;;;;;;;2.88;1.20;;;24.00;99.90;;;;;;5090032;28;20101;-80
2023/09/06 10:27:12;;;;;;;3.60;1.10;;;23.90;99.90;;;;;;5090084;28;20096;-79
2023/09/06 10:29:59;;;;;;;6.13;1.40;;;23.80;99.90;;;;;;5089982;28;20027;-80
2023/09/06 10:32:41;;;;;;;6.03;1.23;;;23.60;99.90;;;;;;5088426;28;20060;-79
2023/09/06 10:35:21;;;;;;;4.78;1.55;;;23.60;99.90;;;;;;5089024;28;20114;-79
2023/09/06 10:38:15;;;;;;;4.45;1.70;;;23.70;99.90;;;;;;5090949;28;20044;-79
2023/09/06 10:40:47;;;;;;;4.07;1.30;;;23.80;99.90;;;;;;5094122;28;20024;-80
2023/09/06 10:43:13;;;;;;;2.20;1.23;;;23.80;99.90;;;;;;5094278;28;20530;-80
2023/09/06 10:45:40;;;;;;;6.97;1.85;;;23.80;99.90;;;;;;5093742;28;20150;-81
2023/09/06 10:48:10;;;;;;;6.03;1.67;;;23.70;99.90;;;;;;5093192;28;20496;-80
2023/09/06 10:50:36;;;;;;;5.88;1.23;;;23.60;99.90;;;;;;5093850;28;20032;-80
2023/09/06 10:53:03;;;;;;;3.42;1.30;;;23.60;99.90;;;;;;5092975;28;20104;-79
2023/09/06 10:55:42;;;;;;;6.63;1.70;;;23.50;99.90;;;;;;5094035;28;20063;-80
2023/09/06 10:58:10;;;;;;;4.53;1.63;;;23.40;99.90;;;;;;5093363;28;20031;-80
2023/09/06 11:00:37;;;;;;;5.07;2.20;;;23.50;99.90;;;;;;5093468;28;20054;-80
2023/09/06 11:03:08;;;;;;;2.50;1.25;;;23.60;99.90;;;;;;5092946;28;20020;-79
2023/09/06 11:05:38;;;;;;;4.60;1.58;;;23.60;99.90;;;;;;5093375;28;20532;-79
2023/09/06 11:08:06;;;;;;;6.72;1.88;;;23.90;99.90;;;;;;5092853;28;20043;-79
2023/09/06 11:10:33;;;;;;;6.18;1.73;;;24.00;99.90;;;;;;5093355;28;20028;-79
2023/09/06 11:13:19;;;;;;;6.13;1.98;;;24.10;99.90;;;;;;5093165;28;20069;-80
2023/09/06 11:15:49;;;;;;;3.20;1.23;;;24.20;99.90;;;;;;5092598;28;20131;-79
2023/09/06 11:18:14;;;;;;;2.97;1.40;;;24.20;99.90;;;;;;5092659;28;20032;-79
2023/09/06 11:20:47;;;;;;;3.00;1.60;;;24.20;99.90;;;;;;5093229;28;20030;-80
2023/09/06 11:23:12;;;;;;;;;;;24.30;99.90;;;;;;5093108;28;20437;-79
2023/09/06 11:25:38;;;;;;;5.03;1.92;;;24.30;99.90;;;;;;5091390;28;19919;-80
2023/09/06 11:28:18;;;;;;;3.58;1.55;;;24.20;99.90;;;;;;5090931;28;20479;-80
2023/09/06 11:30:47;;;;;;;3.83;1.30;;;24.20;99.90;;;;;;5092629;28;20051;-79
2023/09/06 11:33:17;;;;;;;3.42;1.33;;;24.10;99.90;;;;;;5092610;28;20024;-81
2023/09/06 11:35:51;;;;;;;5.07;1.67;;;24.10;99.90;;;;;;5093690;28;20020;-78
2023/09/06 11:38:24;;;;;;;2.85;1.33;;;24.10;99.90;;;;;;5092973;28;20040;-78
2023/09/06 11:40:51;;;;;;;3.15;1.60;;;24.10;99.90;;;;;;5092467;28;20417;-78
2023/09/06 11:43:22;;;;;;;5.38;1.55;;;24.20;99.90;;;;;;5092931;28;20031;-78
2023/09/06 11:45:51;;;;;;;3.53;1.83;;;24.20;99.90;;;;;;5092126;28;20047;-78
2023/09/06 11:48:24;;;;;;;4.85;1.33;;;24.20;99.90;;;;;;5093134;28;20032;-78
2023/09/06 11:50:58;;;;;;;4.80;1.80;;;24.30;99.90;;;;;;5091603;28;20059;-78
2023/09/06 11:53:25;;;;;;;10.25;1.77;;;24.40;99.90;;;;;;5091688;28;20020;-78
2023/09/06 11:55:52;;;;;;;3.92;1.23;;;24.50;99.90;;;;;;5092437;28;20039;-78
2023/09/06 11:58:20;;;;;;;3.50;1.50;;;24.50;99.90;;;;;;5092521;28;20036;-78
2023/09/06 12:00:50;;;;;;;5.00;1.40;;;24.40;99.90;;;;;;5092160;28;20062;-78
2023/09/06 12:03:16;;;;;;;3.47;1.40;;;24.40;99.90;;;;;;5092199;28;20047;-79
2023/09/06 12:05:46;;;;;;;3.72;1.30;;;24.40;99.90;;;;;;5091161;28;20035;-78
2023/09/06 12:08:19;;;;;;;7.07;1.60;;;24.50;99.90;;;;;;5091713;28;20020;-78
2023/09/06 12:10:54;;;;;;;5.22;1.45;;;24.50;99.90;;;;;;5091937;28;20025;-78
2023/09/06 12:13:38;;;;;;;4.03;1.30;;;24.60;99.90;;;;;;5091661;28;20101;-78
2023/09/06 12:16:05;;;;;;;3.13;1.42;;;24.70;99.90;;;;;;5090964;28;20047;-78
2023/09/06 12:18:33;;;;;;;2.72;1.40;;;24.80;99.90;;;;;;5091769;28;20034;-78
2023/09/06 12:20:59;;;;;;;5.68;1.67;;;24.80;99.90;;;;;;5091020;28;20028;-78
2023/09/06 12:23:28;;;;;;;4.93;1.38;;;24.90;99.90;;;;;;5091797;28;20121;-78
2023/09/06 12:25:58;;;;;;;3.97;1.33;;;25.00;99.90;;;;;;5091313;28;20100;-78
2023/09/06 12:28:24;;;;;;;2.42;1.20;;;25.00;99.90;;;;;;5092371;28;20032;-78
2023/09/06 12:30:55;;;;;;;2.70;0.93;;;25.00;99.90;;;;;;5090877;28;20135;-78
2023/09/06 12:33:22;;;;;;;1.63;1.20;;;25.10;99.90;;;;;;5092036;28;20024;-79
2023/09/06 12:35:59;;;;;;;2.33;1.40;;;25.00;99.90;;;;;;5092264;28;20452;-78
2023/09/06 12:38:29;;;;;;;4.18;1.65;;;25.00;99.90;;;;;;5091855;28;20111;-78
2023/09/06 12:40:56;;;;;;;3.83;1.45;;;25.10;99.90;;;;;;5091378;28;20020;-77